createdAt,value
2023-05-19T00:01:38.645Z,15.49
2023-05-19T00:04:41.159Z,16.44
2023-05-19T00:07:43.135Z,15.86
2023-05-19T00:10:45.541Z,16.15
2023-05-19T00:13:49.742Z,15.97
2023-05-19T00:16:51.857Z,15.92
2023-05-19T00:19:54.930Z,15.21
2023-05-19T00:22:56.978Z,15.38
2023-05-19T00:25:59.066Z,16.00
2023-05-19T00:29:01.029Z,15.92
2023-05-19T00:32:03.147Z,16.27
2023-05-19T00:35:05.818Z,16.17
2023-05-19T00:38:07.721Z,16.38
2023-05-19T00:41:09.760Z,15.98
2023-05-19T00:44:11.801Z,16.12
2023-05-19T00:47:15.920Z,15.26
2023-05-19T00:50:18.126Z,15.49
2023-05-19T00:53:22.648Z,15.45
2023-05-19T00:56:24.627Z,15.33
2023-05-19T00:59:28.701Z,15.38
2023-05-19T01:02:30.825Z,15.55
2023-05-19T01:05:32.859Z,15.12
2023-05-19T01:08:37.404Z,15.52
2023-05-19T01:11:39.450Z,15.59
2023-05-19T01:14:41.659Z,15.70
2023-05-19T01:17:54.798Z,15.74
2023-05-19T01:21:16.125Z,15.74
2023-05-19T01:24:36.834Z,15.05
2023-05-19T01:28:03.449Z,15.69
2023-05-19T01:31:07.533Z,15.49
2023-05-19T01:34:09.595Z,16.03
2023-05-19T01:37:11.960Z,15.58
2023-05-19T01:40:14.115Z,14.85
2023-05-19T01:43:20.572Z,15.36
2023-05-19T01:46:22.497Z,15.88
2023-05-19T01:49:24.467Z,15.12
2023-05-19T01:52:26.509Z,15.26
2023-05-19T01:55:28.688Z,15.70
2023-05-19T01:58:39.824Z,16.17
2023-05-19T02:01:51.244Z,16.32
2023-05-19T02:04:57.981Z,15.59
2023-05-19T02:08:20.177Z,15.24
2023-05-19T02:11:25.508Z,15.13
2023-05-19T02:14:32.029Z,15.80
2023-05-19T02:17:36.524Z,16.03
2023-05-19T02:20:39.624Z,15.21
2023-05-19T02:23:42.074Z,15.02
2023-05-19T02:26:44.095Z,15.24
2023-05-19T02:29:46.208Z,15.58
2023-05-19T02:32:48.286Z,15.66
2023-05-19T02:35:50.833Z,15.16
2023-05-19T02:38:53.384Z,14.89
2023-05-19T02:41:58.094Z,14.68
2023-05-19T02:45:00.810Z,15.02
2023-05-19T02:48:03.014Z,15.42
2023-05-19T02:51:05.377Z,15.19
2023-05-19T02:54:07.362Z,15.44
2023-05-19T02:57:09.290Z,15.13
2023-05-19T03:00:11.476Z,15.52
2023-05-19T03:03:14.005Z,15.37
2023-05-19T03:06:18.273Z,15.37
2023-05-19T03:09:20.713Z,15.60
2023-05-19T03:12:22.963Z,15.75
2023-05-19T03:15:24.988Z,16.32
2023-05-19T03:18:27.281Z,16.34
2023-05-19T03:21:29.242Z,14.43
2023-05-19T03:24:31.665Z,14.53
2023-05-19T03:27:33.612Z,14.80
2023-05-19T03:30:35.723Z,14.48
2023-05-19T03:33:37.776Z,15.57
2023-05-19T03:36:40.340Z,15.84
2023-05-19T03:39:42.272Z,15.89
2023-05-19T03:42:44.931Z,15.26
2023-05-19T03:45:47.243Z,15.73
2023-05-19T03:48:49.228Z,15.43
2023-05-19T03:51:51.195Z,15.96
2023-05-19T03:54:53.278Z,15.85
2023-05-19T03:57:55.351Z,15.32
2023-05-19T04:00:57.380Z,15.40
2023-05-19T04:03:59.438Z,15.19
2023-05-19T04:07:01.487Z,16.08
2023-05-19T04:10:06.806Z,15.56
2023-05-19T04:13:08.835Z,15.62
2023-05-19T04:16:11.172Z,15.20
2023-05-19T04:19:13.295Z,15.35
2023-05-19T04:22:15.273Z,15.58
2023-05-19T04:25:17.242Z,16.18
2023-05-19T04:28:19.291Z,16.27
2023-05-19T04:31:21.916Z,16.24
2023-05-19T04:34:23.991Z,16.13
2023-05-19T04:37:26.366Z,16.04
2023-05-19T04:40:31.788Z,16.17
2023-05-19T04:43:34.443Z,15.94
2023-05-19T04:46:36.827Z,16.79
2023-05-19T04:49:39.268Z,17.01
2023-05-19T04:52:45.727Z,17.14
2023-05-19T04:55:47.926Z,18.03
2023-05-19T04:58:50.193Z,18.99
2023-05-19T05:01:52.512Z,17.91
2023-05-19T05:04:54.987Z,17.75
2023-05-19T05:07:57.745Z,18.72
2023-05-19T05:11:00.064Z,19.94
2023-05-19T05:14:02.271Z,19.23
2023-05-19T05:17:04.458Z,18.61
2023-05-19T05:20:07.475Z,18.78
2023-05-19T05:23:10.056Z,19.61
2023-05-19T05:26:24.346Z,18.61
2023-05-19T05:29:26.427Z,18.28
2023-05-19T05:32:28.969Z,18.93
2023-05-19T05:35:31.162Z,19.61
2023-05-19T05:38:33.577Z,19.98
2023-05-19T05:41:35.628Z,21.86
2023-05-19T05:44:37.620Z,20.93
2023-05-19T05:47:41.510Z,19.91
2023-05-19T05:50:44.471Z,18.50
2023-05-19T05:53:46.778Z,18.54
2023-05-19T05:56:49.552Z,19.80
2023-05-19T05:59:52.196Z,19.27
2023-05-19T06:02:54.547Z,19.18
2023-05-19T06:05:57.116Z,19.90
2023-05-19T06:08:59.616Z,20.75
2023-05-19T06:12:02.349Z,21.16
2023-05-19T06:15:05.198Z,21.06
2023-05-19T06:18:09.913Z,19.87
2023-05-19T06:21:15.304Z,20.54
2023-05-19T06:24:17.946Z,19.66
2023-05-19T06:27:20.153Z,20.33
2023-05-19T06:30:24.951Z,20.22
2023-05-19T06:33:35.837Z,19.75
2023-05-19T06:36:38.154Z,20.88
2023-05-19T06:39:40.435Z,20.24
2023-05-19T06:42:43.955Z,19.79
2023-05-19T06:45:46.504Z,19.64
2023-05-19T06:48:48.881Z,20.78
2023-05-19T06:51:51.262Z,21.79
2023-05-19T06:54:53.427Z,20.68
2023-05-19T06:57:55.984Z,20.89
2023-05-19T07:00:58.094Z,22.17
2023-05-19T07:04:01.815Z,22.65
2023-05-19T07:07:07.907Z,21.75
2023-05-19T07:10:12.984Z,21.85
2023-05-19T07:13:16.138Z,21.03
2023-05-19T07:16:18.267Z,23.48
2023-05-19T07:19:20.464Z,21.78
2023-05-19T07:22:27.003Z,21.48
2023-05-19T07:25:30.735Z,21.26
2023-05-19T07:28:34.634Z,24.41
2023-05-19T07:31:37.060Z,23.15
2023-05-19T07:34:40.214Z,24.19
2023-05-19T07:37:42.361Z,23.80
2023-05-19T07:40:44.632Z,26.66
2023-05-19T07:43:49.038Z,22.87
2023-05-19T07:46:52.686Z,25.51
2023-05-19T07:49:55.341Z,25.04
2023-05-19T07:52:57.353Z,25.43
2023-05-19T07:55:59.524Z,26.48
2023-05-19T07:59:01.995Z,23.11
2023-05-19T08:02:04.136Z,25.56
2023-05-19T08:05:06.550Z,27.14
2023-05-19T08:08:08.629Z,28.01
2023-05-19T08:11:11.384Z,29.18
2023-05-19T08:14:13.453Z,27.90
2023-05-19T08:17:15.631Z,25.98
2023-05-19T08:20:21.134Z,25.34
2023-05-19T08:23:23.618Z,27.33
2023-05-19T08:26:26.427Z,26.93
2023-05-19T08:29:28.508Z,27.39
2023-05-19T08:32:30.793Z,25.15
2023-05-19T08:35:32.973Z,27.63
2023-05-19T08:38:38.105Z,26.66
2023-05-19T08:41:44.293Z,26.23
2023-05-19T08:44:50.179Z,27.99
2023-05-19T08:47:54.586Z,26.06
2023-05-19T08:51:15.770Z,24.54
2023-05-19T08:54:26.893Z,27.12
2023-05-19T08:57:33.684Z,25.63
2023-05-19T09:00:41.100Z,26.10
2023-05-19T09:03:47.465Z,28.11
2023-05-19T09:06:58.766Z,28.94
2023-05-19T09:10:19.523Z,27.41
2023-05-19T09:13:35.993Z,30.00
2023-05-19T09:20:06.135Z,28.68
2023-05-19T09:23:21.159Z,26.87
2023-05-19T09:26:23.892Z,25.63
2023-05-19T09:29:28.098Z,24.90
2023-05-19T09:36:05.725Z,27.31
2023-05-19T09:39:25.785Z,25.07
2023-05-19T09:42:37.826Z,24.65
2023-05-19T09:45:42.876Z,23.73
2023-05-19T09:48:48.728Z,24.45
2023-05-19T09:52:03.341Z,25.35
2023-05-19T09:55:12.080Z,26.53
2023-05-19T09:58:50.358Z,25.65
2023-05-19T10:02:32.802Z,25.15
2023-05-19T10:05:42.087Z,27.40
2023-05-19T10:09:06.794Z,24.89
2023-05-19T10:12:17.881Z,26.27
2023-05-19T10:18:47.750Z,27.07
2023-05-19T10:21:50.503Z,27.48
2023-05-19T10:24:56.353Z,26.29
2023-05-19T10:28:17.437Z,26.14
2023-05-19T10:31:22.365Z,26.75
2023-05-19T10:34:46.268Z,24.27
2023-05-19T10:38:14.878Z,25.44
2023-05-19T10:41:23.248Z,24.15
2023-05-19T10:44:39.773Z,25.52
2023-05-19T10:47:42.741Z,25.93
2023-05-19T10:50:52.213Z,26.73
2023-05-19T10:54:07.799Z,28.74
2023-05-19T11:01:19.753Z,28.77
2023-05-19T11:04:24.851Z,26.04
2023-05-19T11:08:06.037Z,26.25
2023-05-19T11:11:28.921Z,25.03
2023-05-19T11:14:37.985Z,26.00
2023-05-19T11:21:08.162Z,27.62
2023-05-19T11:24:27.305Z,27.02
2023-05-19T11:27:31.949Z,27.92
2023-05-19T11:30:52.722Z,28.72
2023-05-19T11:34:01.859Z,31.47
2023-05-19T11:37:10.005Z,30.93
2023-05-19T11:40:37.562Z,28.94
2023-05-19T11:43:48.087Z,29.44
2023-05-19T11:46:51.152Z,32.69
2023-05-19T11:49:59.386Z,30.52
2023-05-19T11:53:44.623Z,32.39
2023-05-19T11:56:44.828Z,29.92
2023-05-19T11:59:49.826Z,30.64
2023-05-19T12:02:52.212Z,34.56
2023-05-19T12:05:54.499Z,33.02
2023-05-19T12:08:56.695Z,35.87
2023-05-19T12:11:58.574Z,32.50
2023-05-19T12:15:02.945Z,31.28
2023-05-19T12:18:05.019Z,31.43
2023-05-19T12:21:07.356Z,31.30
2023-05-19T12:24:09.398Z,29.31
2023-05-19T12:27:21.383Z,28.49
2023-05-19T12:30:26.662Z,29.47
2023-05-19T12:33:28.558Z,26.73
2023-05-19T12:36:31.914Z,25.98
2023-05-19T12:39:34.037Z,26.52
2023-05-19T12:42:36.032Z,26.73
2023-05-19T12:45:38.980Z,26.42
2023-05-19T12:48:41.921Z,26.20
2023-05-19T12:51:46.457Z,25.44
2023-05-19T12:54:48.494Z,26.03
2023-05-19T12:57:57.008Z,26.09
2023-05-19T13:01:00.436Z,26.38
2023-05-19T13:04:05.398Z,25.73
2023-05-19T13:07:08.245Z,26.50
2023-05-19T13:10:10.221Z,25.80
2023-05-19T13:13:12.550Z,26.96
2023-05-19T13:16:14.577Z,25.36
2023-05-19T13:22:25.534Z,25.60
2023-05-19T13:25:32.801Z,25.88
2023-05-19T13:28:35.009Z,26.26
2023-05-19T13:31:37.052Z,26.32
2023-05-19T13:34:39.004Z,25.91
2023-05-19T13:37:43.788Z,26.62
2023-05-19T13:40:45.913Z,25.60
2023-05-19T13:43:47.766Z,26.70
2023-05-19T13:46:50.812Z,25.84
2023-05-19T13:49:54.192Z,24.74
2023-05-19T13:52:56.355Z,25.12
2023-05-19T13:55:58.227Z,25.09
2023-05-19T13:59:00.266Z,25.50
2023-05-19T14:02:05.664Z,25.22
2023-05-19T14:05:08.314Z,25.66
2023-05-19T14:08:11.364Z,25.41
2023-05-19T14:11:19.963Z,25.69
2023-05-19T14:14:21.970Z,26.95
2023-05-19T14:17:24.133Z,25.81
2023-05-19T14:20:27.951Z,26.57
2023-05-19T14:23:32.080Z,25.66
2023-05-19T14:26:34.011Z,25.06
2023-05-19T14:29:38.067Z,26.44
2023-05-19T14:32:40.184Z,25.77
2023-05-19T14:35:42.127Z,26.24
2023-05-19T14:38:44.167Z,26.53
2023-05-19T14:41:46.262Z,26.12
2023-05-19T14:44:48.225Z,26.35
2023-05-19T14:47:50.196Z,26.06
2023-05-19T14:50:52.642Z,25.67
2023-05-19T14:53:54.545Z,25.53
2023-05-19T14:56:56.449Z,25.53
2023-05-19T14:59:58.498Z,25.86
2023-05-19T15:03:00.438Z,25.99
2023-05-19T15:06:02.402Z,25.65
2023-05-19T15:09:04.591Z,25.88
2023-05-19T15:12:06.421Z,26.30
2023-05-19T15:15:08.835Z,26.55
2023-05-19T15:18:11.639Z,26.89
2023-05-19T15:21:13.696Z,26.73
2023-05-19T15:24:15.681Z,25.63
2023-05-19T15:27:17.687Z,25.64
2023-05-19T15:30:19.759Z,25.98
2023-05-19T15:33:21.719Z,25.83
2023-05-19T15:36:24.217Z,25.61
2023-05-19T15:39:26.138Z,26.28
2023-05-19T15:42:28.145Z,26.24
2023-05-19T15:45:30.070Z,25.59
2023-05-19T15:48:32.418Z,25.06
2023-05-19T15:51:34.453Z,25.65
2023-05-19T15:54:36.479Z,25.51
2023-05-19T15:57:38.426Z,25.18
2023-05-19T16:00:40.516Z,26.20
2023-05-19T16:03:42.589Z,25.60
2023-05-19T16:06:44.864Z,25.51
2023-05-19T16:09:46.955Z,25.97
2023-05-19T16:12:48.941Z,25.89
2023-05-19T16:15:50.890Z,25.15
2023-05-19T16:18:53.071Z,25.35
2023-05-19T16:21:55.124Z,26.14
2023-05-19T16:24:57.109Z,25.88
2023-05-19T16:27:59.096Z,25.49
2023-05-19T16:31:01.270Z,26.33
2023-05-19T16:34:03.324Z,26.41
2023-05-19T16:37:05.233Z,26.76
2023-05-19T16:40:09.811Z,26.85
2023-05-19T16:43:11.694Z,25.87
2023-05-19T16:46:13.694Z,25.32
2023-05-19T16:49:15.851Z,26.10
2023-05-19T16:52:17.878Z,25.96
2023-05-19T16:55:20.318Z,25.41
2023-05-19T16:58:22.262Z,25.76
2023-05-19T17:01:24.214Z,25.53
2023-05-19T17:04:29.384Z,25.32
2023-05-19T17:07:32.766Z,25.81
2023-05-19T17:10:34.940Z,25.33
2023-05-19T17:13:37.220Z,25.76
2023-05-19T17:16:39.216Z,25.51
2023-05-19T17:19:41.380Z,25.57
2023-05-19T17:22:43.471Z,25.36
2023-05-19T17:25:45.529Z,25.57
2023-05-19T17:28:47.922Z,25.14
2023-05-19T17:31:50.010Z,25.10
2023-05-19T17:34:52.386Z,24.79
2023-05-19T17:37:54.317Z,24.88
2023-05-19T17:40:59.749Z,24.22
2023-05-19T17:44:02.797Z,24.04
2023-05-19T17:47:05.364Z,24.55
2023-05-19T17:50:07.513Z,24.72
2023-05-19T17:53:09.539Z,24.71
2023-05-19T17:56:12.051Z,24.53
2023-05-19T17:59:14.101Z,24.77
2023-05-19T18:02:18.909Z,23.75
2023-05-19T18:05:21.378Z,24.31
2023-05-19T18:08:23.543Z,24.17
2023-05-19T18:11:26.559Z,23.80
2023-05-19T18:14:28.625Z,24.13
2023-05-19T18:17:30.645Z,23.35
2023-05-19T18:20:34.008Z,23.30
2023-05-19T18:23:36.198Z,22.76
2023-05-19T18:26:41.884Z,23.00
2023-05-19T18:29:44.041Z,22.78
2023-05-19T18:32:46.004Z,22.95
2023-05-19T18:35:48.120Z,22.79
2023-05-19T18:38:50.172Z,22.54
2023-05-19T18:41:52.282Z,22.76
2023-05-19T18:44:54.347Z,22.50
2023-05-19T18:47:57.367Z,22.01
2023-05-19T18:50:59.401Z,21.85
2023-05-19T18:54:01.383Z,21.59
2023-05-19T18:57:03.689Z,21.78
2023-05-19T19:00:05.868Z,21.83
2023-05-19T19:03:10.298Z,21.92
2023-05-19T19:06:12.558Z,21.98
2023-05-19T19:09:14.658Z,21.99
2023-05-19T19:15:18.586Z,21.71
2023-05-19T19:18:20.658Z,21.91
2023-05-19T19:21:24.432Z,21.20
2023-05-19T19:24:29.094Z,21.03
2023-05-19T19:27:31.306Z,20.91
2023-05-19T19:30:33.453Z,21.40
2023-05-19T19:33:35.691Z,21.93
2023-05-19T19:36:37.617Z,22.19
2023-05-19T19:39:39.714Z,22.37
2023-05-19T19:42:41.698Z,22.23
2023-05-19T19:45:43.686Z,21.90
2023-05-19T19:48:45.707Z,21.50
2023-05-19T19:51:47.642Z,21.05
2023-05-19T19:54:49.675Z,21.88
2023-05-19T19:57:51.575Z,21.59
2023-05-19T20:01:00.302Z,20.94
2023-05-19T20:04:02.389Z,21.02
2023-05-19T20:07:04.486Z,21.34
2023-05-19T20:10:06.713Z,21.58
2023-05-19T20:13:08.676Z,21.92
2023-05-19T20:16:10.746Z,21.77
2023-05-19T20:19:12.678Z,21.54
2023-05-19T20:22:14.877Z,21.15
2023-05-19T20:25:19.360Z,21.63
2023-05-19T20:28:24.096Z,22.00
2023-05-19T20:31:26.281Z,21.43
2023-05-19T20:34:28.198Z,21.55
2023-05-19T20:37:30.194Z,21.36
2023-05-19T20:40:32.383Z,20.92
2023-05-19T20:43:34.293Z,21.26
2023-05-19T20:46:36.353Z,21.56
2023-05-19T20:49:38.269Z,21.24
2023-05-19T20:52:40.121Z,21.29
2023-05-19T20:55:44.309Z,20.52
2023-05-19T20:58:46.296Z,20.53
2023-05-19T21:01:48.247Z,20.35
2023-05-19T21:04:50.873Z,20.19
2023-05-19T21:07:52.773Z,20.90
2023-05-19T21:10:54.801Z,20.70
2023-05-19T21:13:56.826Z,21.42
2023-05-19T21:16:58.925Z,20.00
2023-05-19T21:20:01.182Z,19.89
2023-05-19T21:23:03.024Z,19.70
2023-05-19T21:26:06.261Z,20.33
2023-05-19T21:29:08.309Z,20.57
2023-05-19T21:32:10.265Z,20.52
2023-05-19T21:35:14.314Z,20.35
2023-05-19T21:41:24.458Z,19.92
2023-05-19T21:44:26.456Z,19.93
2023-05-19T21:47:28.514Z,19.75
2023-05-19T21:50:30.997Z,19.10
2023-05-19T21:53:32.960Z,19.43
2023-05-19T21:56:34.916Z,19.34
2023-05-19T21:59:36.802Z,19.07
2023-05-19T22:02:39.502Z,18.89
2023-05-19T22:05:41.428Z,18.88
2023-05-19T22:08:43.479Z,18.70
2023-05-19T22:11:48.042Z,18.62
2023-05-19T22:14:50.045Z,19.10
2023-05-19T22:17:51.969Z,19.45
2023-05-19T22:20:53.905Z,19.64
2023-05-19T22:23:55.976Z,19.31
2023-05-19T22:26:57.940Z,18.72
2023-05-19T22:30:00.014Z,18.63
2023-05-19T22:33:02.253Z,18.56
2023-05-19T22:36:04.552Z,18.35
2023-05-19T22:39:06.416Z,18.91
2023-05-19T22:42:08.468Z,19.10
2023-05-19T22:45:10.619Z,18.58
2023-05-19T22:48:12.737Z,18.80
2023-05-19T22:51:14.670Z,18.07
2023-05-19T22:54:16.624Z,18.91
2023-05-19T22:57:19.418Z,18.67
2023-05-19T23:00:21.660Z,19.81
2023-05-19T23:03:23.640Z,20.02
2023-05-19T23:06:25.587Z,19.28
2023-05-19T23:09:27.608Z,19.08
2023-05-19T23:12:29.477Z,19.22
2023-05-19T23:15:31.601Z,18.45
2023-05-19T23:18:33.598Z,18.46
2023-05-19T23:21:36.033Z,18.36
2023-05-19T23:24:37.991Z,18.55
2023-05-19T23:27:39.982Z,18.01
2023-05-19T23:30:42.097Z,17.82
2023-05-19T23:33:44.014Z,18.50
2023-05-19T23:36:45.955Z,17.80
2023-05-19T23:39:47.868Z,18.75
2023-05-19T23:42:49.826Z,18.90
2023-05-19T23:45:51.768Z,18.73
2023-05-19T23:48:53.688Z,18.95
2023-05-19T23:52:00.874Z,18.57
2023-05-19T23:55:03.683Z,17.66
2023-05-19T23:58:05.668Z,17.53
